Weather observations for the past three days for
Sacramento Mather Airport
Metric (Imperial)
Date Time (pdt) Wind (kph) Vis. (km) Weather Sky Cond. Temperature (ºC) Relative Humidity Wind Chill (°C) Heat Index (°C) Pressure Precipitation (cm)
Air Dwpt 6 hour altimeter (cm) sea level (mb) 1 hr 3 hr 6 hr
Max. Min.
07 14:35 Calm 12.87 Fair CLR 27 16 51% 27 76.17 0.0
07 14:15 W 9 16.09 Fair CLR 27 16 51% 27 76.2 0.0
07 13:55 SW 9 16.09 Fair CLR 26 16 54% 27 76.23 0.0
07 13:35 Calm 14.48 Fair CLR 26 15 51% 27 76.25 0.0
07 13:15 Calm 16.09 Fair CLR 25 16 57% 26 76.25 0.0
07 12:55 Vrbl 7 16.09 Fair CLR 25 16 57% 26 76.28 0.0
07 12:35 Vrbl 7 16.09 Fair CLR 24 16 61% 25 76.3 0.0
07 12:15 W 9 16.09 Fair CLR 23 16 65% 76.33 0.0
07 11:55 Calm 16.09 Fair CLR 22 16 69% 76.33 0.0
07 11:35 W 13 16.09 Fair CLR 22 16 69% 76.35 0.0
07 11:15 W 9 16.09 Fair CLR 22 17 73% 76.35 0.0
07 10:55 W 11 16.09 Fair CLR 21 17 78% 76.35 0.0
07 10:35 W 7 16.09 Fair CLR 20 17 83% 76.35 0.0
07 10:15 Calm 16.09 Fair CLR 20 17 83% 76.35 0.0
07 09:55 Vrbl 7 16.09 Fair CLR 18 17 94% 76.38 0.0
07 09:35 S 6 14.48 Fair CLR 17 17 100% 76.38 0.0
07 09:15 Calm 16.09 Fair CLR 17 17 100% 76.38 0.0
07 08:55 Calm 16.09 Partly Cloudy SCT005 16 16 100% 76.38 0.0
07 08:35 S 9 9.66 Fog/Mist OVC004 15 15 100% 76.4 0.0
07 08:15 Vrbl 7 8.05 Fog/Mist OVC004 14 14 100% 76.38 0.0
07 07:55 SW 7 6.44 Overcast with Haze OVC004 0 0 0% 76.38 0.0
07 07:30 SW 9 6.44 Fog/Mist BKN003 14 14 100% 76.38 0.0
07 07:15 SW 15 8.05 Fog/Mist SCT004 14 14 100% 76.38 0.0
07 06:55 SW 13 11.27 Fair CLR 13 13 100% 76.35 0.0
07 06:35 S 9 11.27 Fair CLR 13 13 100% 76.35 0.0
07 06:15 S 11 11.27 Fair CLR 12 12 100% 76.33 0.0
07 05:55 S 11 9.66 Fog/Mist CLR 12 12 100% 76.33 0.0
07 05:35 SE 7 11.27 Fair CLR 12 12 100% 76.33 0.0
07 05:15 SE 7 14.48 Fair CLR 12 12 100% 76.33 0.0
07 04:55 S 6 16.09 Fair CLR 12 12 100% 76.3 0.0
07 04:35 S 6 16.09 Fair CLR 12 12 100% 76.33 0.0
07 04:15 S 6 16.09 Fair CLR 13 13 100% 76.33 0.0
07 03:35 S 9 16.09 Fair CLR 13 13 100% 76.3 0.0
07 03:10 S 9 16.09 Fair CLR 13 13 100% 76.3 0.0
07 02:55 S 11 16.09 Fair CLR 13 13 100% 76.3 0.0
07 02:35 S 9 16.09 Fair CLR 13 13 100% 76.3 0.0
07 02:15 S 9 16.09 Fair CLR 13 13 100% 76.33 0.0
07 01:55 S 9 16.09 Fair CLR 13 13 100% 76.33 0.0
07 01:35 SE 11 16.09 Fair CLR 13 13 100% 76.33 0.0
07 01:15 SE 9 16.09 Fair CLR 13 13 100% 76.33 0.0
07 00:55 SE 7 16.09 Fair CLR 13 13 100% 76.33 0.0
07 00:35 SE 9 16.09 Fair CLR 14 14 100% 76.33 0.0
07 00:15 S 7 16.09 Fair CLR 14 14 100% 76.33 0.0
06 23:55 S 9 16.09 Fair CLR 14 14 100% 76.33 0.0
06 23:35 SE 9 16.09 Fair CLR 15 15 100% 76.3 0.0
06 23:15 SE 9 16.09 Fair CLR 15 15 100% 76.3 0.0
06 22:55 S 6 16.09 Fair CLR 16 16 100% 76.3 0.0
06 22:35 S 6 16.09 Fair CLR 17 17 100% 76.3 0.0
06 22:15 S 6 16.09 Fair CLR 17 17 100% 76.3 0.0
06 21:55 SW 7 16.09 Fair CLR 17 17 100% 76.3 0.0
06 21:35 SW 11 16.09 Fair CLR 18 18 100% 76.28 0.0
06 21:15 SW 15 16.09 Fair CLR 18 18 100% 76.28 0.0
06 20:55 SW 9 16.09 Fair CLR 19 18 94% 76.25 0.0
06 20:35 S 7 16.09 Fair CLR 19 16 83% 76.23 0.0
06 20:15 S 7 16.09 Fair CLR 21 15 69% 76.23 0.0
06 19:55 Calm 16.09 Fair CLR 21 16 73% 76.23 0.0
06 19:30 Calm 16.09 Fair CLR 23 15 61% 76.2 0.0
06 18:55 Calm 16.09 Fair CLR 24 15 57% 25 76.23 0.0
06 18:35 Calm 16.09 Fair CLR 24 14 54% 25 76.23 0.0
06 18:15 NE 7 16.09 Fair CLR 24 14 54% 25 76.23 0.0
06 17:55 Vrbl 7 16.09 Fair CLR 24 14 54% 25 76.23 0.0
06 17:35 Vrbl 7 16.09 Fair CLR 25 15 54% 26 76.23 0.0
06 17:15 N 15 16.09 Fair CLR 24 15 57% 25 76.23 0.0
06 16:55 W 9 16.09 Fair CLR 24 14 54% 25 76.23 0.0
06 16:35 NW 13 16.09 Fair CLR 24 14 54% 25 76.25 0.0
06 16:15 Vrbl 7 G 20 16.09 Fair CLR 24 14 54% 25 76.25 0.0
06 15:55 Vrbl 9 16.09 Fair CLR 24 14 54% 25 76.28 0.0
06 15:35 Vrbl 7 G 22 16.09 Fair CLR 24 14 54% 25 76.3 0.0
06 15:15 Vrbl 11 G 20 16.09 Fair CLR 24 14 54% 25 76.33 0.0
06 14:55 NW 15 16.09 A Few Clouds FEW042 24 14 54% 25 76.35 0.0
06 14:35 N 13 16.09 A Few Clouds FEW042 23 14 57% 76.38 0.0
06 14:15 Vrbl 6 16.09 Partly Cloudy SCT039 23 14 57% 76.38 0.0
06 13:55 N 11 16.09 Mostly Cloudy BKN039 22 14 61% 76.4 0.0
06 13:35 W 13 16.09 Overcast OVC039 22 14 61% 76.43 0.0
06 13:15 W 9 16.09 Overcast OVC038 22 14 61% 76.43 0.0
06 12:55 NW 6 16.09 Overcast OVC038 22 14 61% 76.45 0.0
06 12:35 Vrbl 11 16.09 Overcast BKN036 OVC043 21 14 64% 76.45 0.0
06 12:15 Vrbl 6 16.09 Overcast OVC043 21 14 64% 76.48 0.0
06 11:55 Calm 16.09 Overcast OVC043 20 14 69% 76.5 0.0
06 11:35 Calm 16.09 Overcast OVC043 20 14 69% 76.5 0.0
06 11:15 NW 7 16.09 Overcast OVC043 20 14 69% 76.5 0.0
06 10:55 Calm 16.09 Overcast OVC043 18 14 78% 76.5 0.0
06 10:30 Calm 16.09 Overcast OVC043 18 14 78% 76.5 0.0
06 10:15 Calm 16.09 Overcast OVC043 18 15 83% 76.5 0.0
06 09:55 Calm 16.09 Overcast OVC043 17 15 88% 76.5 0.0
06 09:35 Calm 16.09 Overcast OVC044 16 15 94% 76.5 0.0
06 09:15 SW 6 16.09 Overcast OVC044 16 15 94% 76.5 0.0
06 08:55 Calm 14.48 Overcast OVC044 16 15 94% 76.5 0.0
06 08:35 Calm 16.09 Overcast OVC044 15 15 100% 76.5 0.0
06 08:15 S 7 16.09 Overcast OVC045 15 15 100% 76.5 0.0
06 07:55 Calm 16.09 Overcast OVC045 15 15 100% 76.5 0.0
06 07:30 S 9 16.09 Overcast OVC046 15 15 100% 76.5 0.0
06 07:15 S 7 16.09 Overcast OVC047 14 14 100% 76.48 0.0
06 06:55 SE 9 16.09 Overcast OVC047 14 14 100% 76.45 0.0
06 06:35 S 7 16.09 Overcast OVC048 14 14 100% 76.45 0.0
06 06:15 SE 7 16.09 Overcast OVC049 14 14 100% 76.45 0.0
06 05:55 SE 7 16.09 Overcast OVC049 14 14 100% 76.45 0.0
06 05:35 SE 9 16.09 Overcast OVC050 14 14 100% 76.43 0.0
06 05:15 SE 7 16.09 Overcast OVC050 14 14 100% 76.43 0.0
06 04:55 SE 9 16.09 Overcast OVC050 14 14 100% 76.43 0.0
06 04:30 SE 7 16.09 Overcast OVC050 14 14 100% 76.4 0.0
06 04:15 SE 9 16.09 Overcast OVC050 14 14 100% 76.4 0.0
06 03:55 SE 9 16.09 Overcast OVC050 14 14 100% 76.4 0.0
06 03:35 SE 11 16.09 Overcast OVC049 0 0 0% 76.38 0.0
06 03:15 SE 7 16.09 Overcast OVC048 14 14 100% 76.35 0.0
06 02:55 SE 6 16.09 Overcast OVC048 14 14 100% 76.35 0.0
06 02:35 SE 7 16.09 Overcast OVC049 14 14 100% 76.35 0.0
06 02:15 SE 6 16.09 Overcast OVC050 14 14 100% 76.38 0.0
06 01:55 SE 7 16.09 Overcast OVC050 14 14 100% 76.35 0.0
06 01:35 SE 7 16.09 Overcast BKN050 OVC055 15 15 100% 76.38 0.0
06 01:15 Calm 16.09 Overcast BKN050 OVC055 15 15 100% 76.38 0.0
06 00:55 S 6 16.09 Overcast OVC050 15 15 100% 76.35 0.0
06 00:35 S 7 16.09 Overcast OVC050 15 15 100% 76.35 0.0
06 00:15 SW 7 16.09 Overcast OVC050 15 15 100% 76.33 0.0
05 23:55 SW 11 16.09 Overcast OVC049 15 14 94% 76.33 0.0
05 23:35 SW 9 16.09 Overcast OVC048 16 15 94% 76.3 0.0
05 23:15 SW 7 9.66 Light Rain OVC049 16 15 94% 76.3 0.0
05 22:55 SW 9 14.48 Overcast OVC049 16 15 94% 76.28 0.0
05 22:30 SW 9 11.27 Light Rain OVC049 16 15 94% 76.28 0.0
05 22:15 SW 9 G 20 16.09 Overcast OVC050 16 15 94% 76.25 0.0
05 21:55 SW 11 16.09 Overcast OVC050 16 15 94% 76.25 0.0
05 21:35 SW 11 16.09 Overcast FEW025 OVC050 16 15 94% 76.23 0.0
05 21:15 SW 17 G 26 14.48 Overcast SCT025 OVC049 17 15 88% 76.2 0.0
05 20:55 S 9 16.09 Overcast FEW032 FEW038 OVC048 17 17 100% 76.2 0.0
05 20:35 S 7 16.09 Overcast SCT033 OVC047 17 16 94% 76.17 0.0
05 20:15 S 9 16.09 Overcast BKN033 OVC049 18 16 88% 76.15 0.0
05 19:55 SE 7 16.09 Overcast BKN031 OVC038 17 17 100% 76.15 0.0
05 19:35 SE 11 16.09 Overcast SCT029 OVC047 18 16 88% 76.12 0.0
05 19:15 SE 11 16.09 Overcast OVC046 0 0 0% 76.1 0.0
05 18:55 SE 13 16.09 Overcast OVC045 18 15 83% 76.1 0.0
05 18:35 SE 11 16.09 Overcast OVC044 18 15 83% 76.1 0.0
05 18:15 SE 13 16.09 Overcast OVC040 18 15 83% 76.1 0.0
05 17:50 SE 13 16.09 Overcast OVC036 19 15 78% 76.07 0.0
05 17:35 SE 13 16.09 Overcast OVC038 19 15 78% 76.07 0.0
05 17:15 S 15 16.09 Overcast OVC038 19 14 73% 76.07 0.0
05 16:55 S 11 16.09 Overcast OVC038 20 13 64% 76.05 0.0
05 16:35 Calm 16.09 Mostly Cloudy SCT040 BKN055 22 12 53% 76.05 0.0
05 16:15 Calm 16.09 Mostly Cloudy BKN037 BKN050 0 0 0% 76.05 0.0
05 15:55 SW 7 16.09 Mostly Cloudy BKN036 BKN050 20 13 64% 76.07 0.0
05 15:35 Calm 16.09 Mostly Cloudy BKN037 BKN047 20 13 64% 76.07 0.0
05 15:15 Vrbl 9 16.09 Partly Cloudy SCT038 20 14 69% 76.1 0.0
05 14:50 S 7 G 19 16.09 Overcast FEW030 OVC039 19 14 73% 76.1 0.0
05 14:35 Calm 16.09 Overcast FEW030 OVC041 18 13 73% 76.12 0.0
05 14:15 Calm 16.09 Overcast OVC039 19 13 68% 76.12 0.0
05 13:55 Calm 16.09 Overcast SCT026 OVC038 18 13 73% 76.12 0.0
05 13:35 Vrbl 6 16.09 Overcast OVC036 18 14 78% 76.12 0.0
05 13:15 Calm 16.09 Overcast OVC034 18 14 78% 76.12 0.0
05 12:55 Vrbl 7 16.09 Overcast OVC032 17 15 88% 76.15 0.0
05 12:35 Calm 9.66 Overcast with Haze FEW020 SCT026 OVC033 17 14 83% 76.15 0.0
05 12:15 Vrbl 6 11.27 Overcast BKN019 OVC025 0 0 0% 76.15 0.0
05 11:50 Calm 16.09 Overcast BKN021 OVC026 16 15 94% 76.15 0.0
05 11:35 Calm 16.09 Overcast BKN019 OVC023 16 15 94% 76.12 0.0
05 11:15 Vrbl 6 16.09 Overcast BKN020 OVC055 16 15 94% 76.12 0.0
05 10:55 Calm 16.09 Overcast OVC018 16 15 94% 76.12 0.0
05 10:35 S 7 16.09 Overcast OVC016 15 15 100% 76.12 0.0
05 10:15 Vrbl 7 16.09 Overcast BKN013 BKN020 OVC060 15 15 100% 76.12 0.0
05 09:55 SE 9 16.09 Overcast BKN012 OVC055 15 15 100% 76.12 0.0
05 09:35 S 11 16.09 Overcast BKN013 OVC050 14 14 100% 76.12 0.0
05 09:15 S 9 16.09 Overcast OVC012 14 14 100% 76.12 0.0
05 08:50 SE 11 16.09 Overcast OVC012 13 13 100% 76.1 0.0
05 08:35 SE 9 16.09 Overcast OVC012 13 13 100% 76.1 0.0
05 08:15 SE 11 16.09 Overcast BKN008 OVC013 13 13 100% 76.1 0.0
05 07:55 SE 13 16.09 Overcast FEW007 OVC012 13 13 100% 76.07 0.0
05 07:15 SE 11 16.09 Overcast OVC012 12 12 100% 76.05 0.0
05 06:55 SE 13 14.48 Overcast OVC011 12 12 100% 76.05 0.0
05 06:35 SE 9 14.48 Overcast OVC010 12 12 100% 76.02 0.0
05 06:15 SE 11 11.27 Overcast OVC009 12 12 100% 76.02 0.0
05 05:50 SE 9 14.48 Overcast OVC009 12 12 100% 76.02 0.0
05 05:35 SE 9 14.48 Overcast OVC009 12 12 100% 76.02 0.0
05 05:15 SE 11 12.87 Overcast OVC008 12 12 100% 76.02 0.0
05 04:55 SE 7 16.09 Overcast OVC008 0 0 0% 76.02 0.0
05 04:35 SE 9 16.09 Overcast OVC006 12 12 100% 76.02 0.0
05 04:15 SE 9 16.09 Overcast SCT007 SCT013 OVC048 0 0 0% 76.02 0.0
05 03:55 S 9 16.09 Overcast FEW013 BKN047 OVC050 12 12 100% 76.02 0.0
05 03:35 SE 9 16.09 Overcast OVC050 12 12 100% 76.05 0.0
05 03:15 S 11 16.09 Overcast OVC055 12 12 100% 76.02 0.0
05 02:50 S 7 16.09 Overcast OVC055 12 12 100% 76.05 0.0
05 02:35 SE 7 16.09 Overcast OVC055 12 12 100% 76.05 0.0
05 02:15 S 9 16.09 Overcast FEW005 OVC060 12 12 100% 76.07 0.0
05 01:55 S 7 16.09 Overcast BKN004 BKN009 OVC060 12 12 100% 76.07 0.0 0.05
05 01:35 S 7 16.09 Overcast SCT004 OVC060 12 12 100% 76.1 0.0
05 00:55 S 7 6.44 Light Rain FEW003 BKN060 OVC085 12 12 100% 76.1 0.0 0.1
05 00:35 S 6 4.83 Light Rain FEW037 SCT050 OVC060 12 12 100% 76.1 0.0
05 00:15 Calm 16.09 Overcast BKN050 OVC060 12 12 100% 76.1 0.0
04 23:55 Calm 12.87 Light Rain BKN055 OVC075 12 12 100% 76.1 0.0 0.28
04 23:35 SE 11 8.05 Light Rain BKN050 OVC060 12 12 100% 76.1 0.0
04 23:15 E 6 4.83 Rain FEW038 BKN050 OVC080 12 12 100% 76.1 0.0
04 22:55 Calm 8.05 Light Rain FEW036 SCT045 BKN060 13 13 100% 76.1 0.0 0.13
04 22:35 Calm 8.05 Light Rain FEW041 SCT049 BKN065 13 13 100% 76.1 0.0
04 21:55 SE 7 11.27 Light Rain SCT038 SCT065 OVC090 12 12 100% 76.1 0.0 0.25
04 21:35 Calm 8.05 Rain OVC038 13 13 100% 76.1 0.0
04 21:15 Calm 6.44 Rain SCT037 BKN049 BKN065 13 13 100% 76.1 0.0
04 20:55 Calm 8.05 Light Rain FEW044 SCT050 BKN080 13 13 100% 76.1 0.0 0.3
04 20:35 Calm 8.05 Rain FEW047 SCT055 BKN070 13 13 100% 76.1 0.0
04 20:15 NE 9 G 19 12.87 Light Rain FEW060 BKN070 BKN080 13 13 100% 76.1 0.0
04 19:55 Calm 6.44 Light Rain FEW025 FEW038 BKN080 13 13 100% 76.07 0.0 0.05
04 19:35 E 7 14.48 Light Rain BKN025 BKN038 OVC050 13 13 100% 76.05 0.0
04 19:15 E 9 16.09 Light Rain SCT024 BKN050 OVC080 13 13 100% 76.05 0.0
04 18:55 E 7 9.66 Light Rain FEW042 BKN080 13 13 100% 76.05 0.0 0.15
04 18:35 E 6 11.27 Light Rain BKN080 13 13 100% 76.05 0.0
04 18:10 E 7 8.05 Light Rain FEW039 SCT070 OVC080 14 14 100% 76.05 0.0
04 17:55 E 13 14.48 Light Rain BKN075 14 14 100% 76.07 0.0 0.05
04 17:35 E 11 12.87 Light Rain FEW055 BKN070 14 14 100% 76.07 0.0
04 17:15 E 11 14.48 Light Rain SCT055 BKN070 14 14 100% 76.07 0.0
04 16:55 E 11 9.66 Light Rain FEW047 FEW060 14 14 100% 76.07 0.0 0.13
04 16:35 E 7 9.66 Light Rain SCT060 SCT070 14 14 100% 76.07 0.0
04 16:15 E 11 12.87 Light Rain SCT060 BKN070 14 14 100% 76.07 0.0
04 15:55 E 9 12.87 Light Rain BKN060 BKN070 15 15 100% 76.1 0.0 0.08
04 15:35 E 13 12.87 Light Rain BKN060 BKN070 15 15 100% 76.1 0.0
04 15:15 E 11 9.66 Light Rain FEW050 SCT060 15 15 100% 76.1 0.0
04 14:55 E 7 11.27 Light Rain FEW065 SCT080 15 15 100% 76.1 0.0
Date Time (pdt) Wind (kph) Vis. (km) Weather Sky Cond. Air Dwpt Max. Min. Relative Humidity Wind Chill (°C) Heat Index (°C) altimeter (cm) sea level (mb) 1 hr 3 hr 6 hr
6 hour
Temperature (ºC) Pressure Precipitation (cm)